AirNav   Textron
 
 295 users online  

KLOT Lewis University Airport
Chicago/Romeoville, Illinois, USA

GOING TO CHICAGO/ROMEOVILLE?


FAA INFORMATION EFFECTIVE 12 OCTOBER 2017

Location

FAA Identifier: LOT
Lat/Long: 41-36-29.2000N / 088-05-46.3000W
41-36.486667N / 088-05.771667W
41.6081111 / -88.0961944
(estimated)
Elevation: 679.1 ft. / 207.0 m (surveyed)
Variation: 02W (2000)
From city: 20 miles SW of central business district of the associated city
Time zone: UTC -5 (UTC -6 during Standard Time)
Zip code: 60441

Airport Operations

Airport use: Open to the public
Activation date: 04/1940
Control tower: no
ARTCC: CHICAGO CENTER
FSS: KANKAKEE FLIGHT SERVICE STATION
NOTAMs facility: LOT (NOTAM-D service available)
Attendance: 0700-2100
Wind indicator: lighted
Segmented circle: no
Lights: MIRL RY 02/20 & 09/27 PRESET ON LOW INTST; TO INCR INTST ACTVT - CTAF. ACTVT REIL RYS 02/20 & 09/27 & PAPI RYS 02/ 20 & 09/27 - CTAF.
Beacon: white-green (lighted land airport)
Operates sunset to sunrise.

Airport Communications

CTAF/UNICOM: 122.8
WX AWOS-3: 118.525 (815-588-4802)
CHICAGO APPROACH: 119.35
CHICAGO DEPARTURE: 119.35
IC: 119.35
WX AWOS-3 at JOT (6 nm SW): 119.975 (815-730-9560)
WX AWOS-3 at C09 (18 nm SW): 118.175 (815-941-1815)
WX ASOS at MDW (19 nm NE): PHONE 773-884-4424
WX ASOS at DPA (19 nm N): PHONE 630-584-2728
WX ASOS at ARR (20 nm NW): PHONE 630-466-5622

Nearby radio navigation aids

VOR radial/distance  VOR name  Freq  Var
JOTr068/10.6JOLIET VORTAC112.3002E
DPAr144/20.4DUPAGE VOR/DME108.4002E
CGTr282/24.3CHICAGO HEIGHTS VORTAC114.2002E
ORDr199/24.3CHICAGO O'HARE VOR/DME113.9002E
EONr324/24.5PEOTONE VORTAC113.2002E
IKKr341/33.9KANKAKEE VOR/DME111.6000E
OBKr192/37.4NORTHBROOK VOR/DME113.0002W

Airport Services

Fuel available: 100LL JET-A
Parking: hangars and tiedowns
Airframe service: MAJOR
Powerplant service: MAJOR
Bottled oxygen: NONE
Bulk oxygen: NONE

Runway Information

Runway 2/20

Dimensions: 6500 x 100 ft. / 1981 x 30 m
Surface: concrete/grooved, in good condition
Weight bearing capacity: 
Double wheel: 99.0
Runway edge lights: medium intensity
RUNWAY 2  RUNWAY 20
Latitude: 41-35.953892N41-36.993555N
Longitude: 088-06.053797W088-05.715347W
Elevation: 679.1 ft.666.0 ft.
Traffic pattern: leftleft
Runway heading: 015 magnetic, 013 true195 magnetic, 193 true
Markings: nonprecision, in good conditionnonprecision, in good condition
Visual slope indicator: 4-light PAPI on left (3.00 degrees glide path)4-light PAPI on left (3.20 degrees glide path)
Runway end identifier lights: yesyes
Touchdown point: yes, no lightsyes, no lights
Instrument approach: LOC/DME

Runway 9/27

Dimensions: 5696 x 75 ft. / 1736 x 23 m
Surface: asphalt/porous friction courses, in good condition
Runway edge lights: medium intensity
RUNWAY 9  RUNWAY 27
Latitude: 41-36.482215N41-36.519235N
Longitude: 088-06.266667W088-05.017993W
Elevation: 672.6 ft.664.0 ft.
Gradient: 0.2%0.2%
Traffic pattern: leftleft
Runway heading: 090 magnetic, 088 true270 magnetic, 268 true
Displaced threshold: no196 ft.
Markings: nonprecision, in good conditionnonprecision, in good condition
Visual slope indicator: 4-light PAPI on left (3.00 degrees glide path)4-light PAPI on left (3.00 degrees glide path)
Runway end identifier lights: yesyes
Touchdown point: yes, no lightsyes, no lights
Instrument approach: LOC/DME
Obstructions: none51 ft. tree, 1058 ft. from runway, 268 ft. left of centerline, 16:1 slope to clear
RY 27 APCH SLOPE 24:1 TO DSPLCD THLD.

Airport Ownership and Management from official FAA records

Ownership: Publicly-owned
Owner: JOLIET REGIONAL PORT DIST
#1 EXECUTIVE TERMINAL, GEORGE MICHAS DRIVE
ROMEOVILLE, IL 60446-7175
Phone 815-838-9497
Manager: CHRIS LAWSON
#1 EXECUTVE TERMINAL, GEORGE MICHAS DRIVE
ROMEOVILLE, IL 60446-7175
Phone 815-838-9497
AMGR ADDNL PHONE NUMBER - 815-838-9512.

Airport Operational Statistics

Aircraft based on the field: 147
Single engine airplanes: 121
Multi engine airplanes: 15
Jet airplanes: 9
Helicopters: 2
    
Aircraft operations: avg 285/day *
58% local general aviation
38% transient general aviation
4% air taxi
* for 12-month period ending 31 December 2015

Additional Remarks

TWY A CLSD INDEFLY.
N PARKING RAMP CLSD TO ALL MULTI ENGINE ACFT.
BIRDS ON & INVOF ARPT.
CHICAGO APPROACH CLEARANCE 847-289-0926
FOR CD CTC CHICAGO APCH AT 847-289-0926.

Instrument Procedures

NOTE: All procedures below are presented as PDF files. If you need a reader for these files, you should download the free Adobe Reader.

NOT FOR NAVIGATION. Please procure official charts for flight.
FAA instrument procedures published for use between 14 September 2017 at 0901Z and 9 November 2017 at 0900Z.

 
IAPs - Instrument Approach Procedures
RNAV (GPS) RWY 02   download (244KB)
RNAV (GPS) RWY 09   download (218KB)
RNAV (GPS) RWY 20   download (183KB)
RNAV (GPS) RWY 27   download (195KB)
LOC/DME RWY 09   download (214KB)
LOC RWY 02   download (271KB)
NOTE: Special Alternate Minimums apply   download (57KB)
 
Departure Procedures
ADELL FOUR (RNAV)   download (244KB)
BLOKR FOUR (RNAV)   download (249KB)
CARYN FOUR (RNAV)   download (223KB)
DARCY FOUR (RNAV)   download (233KB)
ELANR FOUR (RNAV)   download (237KB)
OBENE TWO (RNAV)   2 pages: [1] [2] (376KB)
NOTE: Special Take-Off Minimums/Departure Procedures apply   download (201KB)

Other nearby airports with instrument procedures:

1C5 - Bolingbrook's Clow International Airport (5 nm N)
C09 - Morris Municipal Airport-James R. Washburn Field (18 nm SW)
KMDW - Chicago Midway International Airport (19 nm NE)
KDPA - DuPage Airport (19 nm N)
KARR - Aurora Municipal Airport (20 nm NW)
 
Loc | Ops | Rwys | IFR | FBO | Links
Com | Nav | Svcs | Stats | Notes


 
Area around KLOT (Lewis University Airport)
 
Road maps at: MapQuest Bing Google
 
Aerial photo
WARNING: Photo may not be current or correct
Aerial photo of KLOT (Lewis University Airport)
Photo taken 27-Jul-2012
looking northeast.

Do you have a better or more recent aerial photo of Lewis University Airport that you would like to share? If so, please send us your photo.

 
Sectional chart

 
Airport distance calculator
Flying to Lewis University Airport? Find the distance to fly.

From to KLOT

Sunrise and sunset
Times for 20-Oct-2017
 Local
(UTC-5)
 Zulu
(UTC)
Morning civil twilight06:4311:43
Sunrise07:1112:11
Sunset18:0323:03
Evening civil twilight18:3123:31

Current date and time
Zulu (UTC)  20-Oct-2017 07:45:24
Local (UTC-5)  20-Oct-2017 02:45:24
 
METAR
KLOT 200735Z AUTO 17006KT 10SM CLR 10/07 A3015 RMK AO2 T01030070
KJOT 
6nm SW 
200735Z AUTO 00000KT 10SM CLR 10/08 A3016 RMK AO2 T01000076
KC09 
18nm SW 
200735Z AUTO 15003KT 10SM CLR 11/08 A3014 RMK AO2 T01140080
KMDW 
19nm NE 
200653Z 18005KT 10SM CLR 14/03 A3015 RMK AO2 SLP206 T01390028
KDPA 
20nm N 
200652Z 18003KT 10SM CLR 10/04 A3014 RMK AO2 SLP206 T01000044
KARR 
20nm NW 
200652Z AUTO 12003KT 10SM CLR 11/04 A3015 RMK AO2 SLP207 T01060044
TAF
KMDW 
19nm NE 
200520Z 2006/2106 17006KT P6SM FEW250 FM201600 19011G17KT P6SM FEW250 FM210000 18008KT P6SM SCT250
KDPA 
20nm N 
200520Z 2006/2106 16005KT P6SM FEW250 FM201600 19011G17KT P6SM FEW250 FM210000 18008KT P6SM SCT250
NOTAMs
Click for the latest NOTAMs
NOTAMs are issued by the DoD/FAA and will open in a separate window not controlled by AirNav.

 

 
 

FBO, Fuel Providers, and Aircraft Ground Support

  
 Business Name 
 
 Contact 
 
 Services / Description 
 
Fuel Prices
 
Comments
  
Lewis University Airport 815-838-9497
no information available

If you are affiliated with Lewis University Airport and would like to show here your services, contact info, web link, logo, and more, click here
100LL Jet A
FS $5.11 $3.80 
SS $4.66 --- 
 Updated 12-Oct-2017
 
   3 read write
FS=Full service
SS=Self service
Update Fuel Prices
 

Would you like to see your business listed on this page?

 If your business provides an interesting product or service to pilots, flight crews, aircraft, or users of the Lewis University Airport, you should consider listing it here.  To start the listing process, click on the button below
 
Add a business
 

Other Pages about Lewis University Airport

www.flylot.com
www.cyberair.com/...
Lewis University
 
Update a link
 
Copyright © AirNav, LLC. All rights reserved. Privacy Policy  Contact